sensor_id;sensor_type;location;lat;lon;timestamp;temperature;humidity
77613;DHT22;66777;52.282;5.960;2023-02-28T00:00:30;1.40;78.80
77613;DHT22;66777;52.282;5.960;2023-02-28T00:02:57;1.40;78.90
77613;DHT22;66777;52.282;5.960;2023-02-28T00:05:24;1.50;78.60
77613;DHT22;66777;52.282;5.960;2023-02-28T00:07:51;1.50;78.70
77613;DHT22;66777;52.282;5.960;2023-02-28T00:10:24;1.60;78.90
77613;DHT22;66777;52.282;5.960;2023-02-28T00:12:51;1.60;78.90
77613;DHT22;66777;52.282;5.960;2023-02-28T00:15:18;1.70;78.60
77613;DHT22;66777;52.282;5.960;2023-02-28T00:17:44;1.80;78.70
77613;DHT22;66777;52.282;5.960;2023-02-28T00:20:11;1.80;78.60
77613;DHT22;66777;52.282;5.960;2023-02-28T00:22:42;1.80;78.30
77613;DHT22;66777;52.282;5.960;2023-02-28T00:25:10;1.80;78.70
77613;DHT22;66777;52.282;5.960;2023-02-28T00:27:36;1.90;78.80
77613;DHT22;66777;52.282;5.960;2023-02-28T00:30:03;1.90;78.90
77613;DHT22;66777;52.282;5.960;2023-02-28T00:32:29;1.90;78.70
77613;DHT22;66777;52.282;5.960;2023-02-28T00:34:55;1.90;78.30
77613;DHT22;66777;52.282;5.960;2023-02-28T00:37:20;1.90;78.10
77613;DHT22;66777;52.282;5.960;2023-02-28T00:39:47;1.90;78.60
77613;DHT22;66777;52.282;5.960;2023-02-28T00:42:13;1.90;78.90
77613;DHT22;66777;52.282;5.960;2023-02-28T00:44:42;1.90;79.00
77613;DHT22;66777;52.282;5.960;2023-02-28T00:47:07;2.00;79.20
77613;DHT22;66777;52.282;5.960;2023-02-28T00:49:33;2.00;79.30
77613;DHT22;66777;52.282;5.960;2023-02-28T00:51:59;2.00;79.20
77613;DHT22;66777;52.282;5.960;2023-02-28T00:54:24;2.00;78.20
77613;DHT22;66777;52.282;5.960;2023-02-28T00:56:50;1.90;79.00
77613;DHT22;66777;52.282;5.960;2023-02-28T00:59:16;1.90;78.20
77613;DHT22;66777;52.282;5.960;2023-02-28T01:01:43;1.80;77.90
77613;DHT22;66777;52.282;5.960;2023-02-28T01:04:09;1.80;78.80
77613;DHT22;66777;52.282;5.960;2023-02-28T01:06:35;1.80;78.50
77613;DHT22;66777;52.282;5.960;2023-02-28T01:09:02;1.70;78.60
77613;DHT22;66777;52.282;5.960;2023-02-28T01:11:27;1.80;78.70
77613;DHT22;66777;52.282;5.960;2023-02-28T01:13:53;1.80;78.60
77613;DHT22;66777;52.282;5.960;2023-02-28T01:16:19;1.80;79.30
77613;DHT22;66777;52.282;5.960;2023-02-28T01:18:44;1.90;79.70
77613;DHT22;66777;52.282;5.960;2023-02-28T01:21:13;2.00;79.30
77613;DHT22;66777;52.282;5.960;2023-02-28T01:23:39;2.00;79.10
77613;DHT22;66777;52.282;5.960;2023-02-28T01:26:12;2.10;79.60
77613;DHT22;66777;52.282;5.960;2023-02-28T01:28:38;2.20;79.70
77613;DHT22;66777;52.282;5.960;2023-02-28T01:31:04;2.20;79.40
77613;DHT22;66777;52.282;5.960;2023-02-28T01:33:31;2.20;79.30
77613;DHT22;66777;52.282;5.960;2023-02-28T01:36:05;2.30;79.50
77613;DHT22;66777;52.282;5.960;2023-02-28T01:38:31;2.30;79.10
77613;DHT22;66777;52.282;5.960;2023-02-28T01:40:57;2.30;78.70
77613;DHT22;66777;52.282;5.960;2023-02-28T01:46:17;2.30;78.90
77613;DHT22;66777;52.282;5.960;2023-02-28T01:51:21;2.30;78.90
77613;DHT22;66777;52.282;5.960;2023-02-28T01:54:00;2.30;79.20
77613;DHT22;66777;52.282;5.960;2023-02-28T01:56:30;2.30;79.60
77613;DHT22;66777;52.282;5.960;2023-02-28T01:58:56;2.30;79.60
77613;DHT22;66777;52.282;5.960;2023-02-28T02:01:24;2.30;79.40
77613;DHT22;66777;52.282;5.960;2023-02-28T02:03:54;2.30;79.50
77613;DHT22;66777;52.282;5.960;2023-02-28T02:06:49;2.30;79.40
77613;DHT22;66777;52.282;5.960;2023-02-28T02:09:16;2.30;79.20
77613;DHT22;66777;52.282;5.960;2023-02-28T02:11:43;2.30;79.40
77613;DHT22;66777;52.282;5.960;2023-02-28T02:14:43;2.30;79.60
77613;DHT22;66777;52.282;5.960;2023-02-28T02:17:19;2.40;79.30
77613;DHT22;66777;52.282;5.960;2023-02-28T02:20:13;2.40;79.70
77613;DHT22;66777;52.282;5.960;2023-02-28T02:22:55;2.40;79.80
77613;DHT22;66777;52.282;5.960;2023-02-28T02:30:59;2.40;79.60
77613;DHT22;66777;52.282;5.960;2023-02-28T02:36:25;2.50;80.20
77613;DHT22;66777;52.282;5.960;2023-02-28T02:41:38;2.40;79.50
77613;DHT22;66777;52.282;5.960;2023-02-28T02:44:21;2.40;79.70
77613;DHT22;66777;52.282;5.960;2023-02-28T02:46:51;2.30;79.50
77613;DHT22;66777;52.282;5.960;2023-02-28T02:49:26;2.40;80.20
77613;DHT22;66777;52.282;5.960;2023-02-28T02:51:54;2.40;80.70
77613;DHT22;66777;52.282;5.960;2023-02-28T02:54:27;2.40;80.70
77613;DHT22;66777;52.282;5.960;2023-02-28T02:56:59;2.50;80.80
77613;DHT22;66777;52.282;5.960;2023-02-28T02:59:28;2.50;80.80
77613;DHT22;66777;52.282;5.960;2023-02-28T03:01:58;2.50;80.90
77613;DHT22;66777;52.282;5.960;2023-02-28T03:04:30;2.50;80.60
77613;DHT22;66777;52.282;5.960;2023-02-28T03:06:56;2.50;80.10
77613;DHT22;66777;52.282;5.960;2023-02-28T03:09:22;2.50;80.30
77613;DHT22;66777;52.282;5.960;2023-02-28T03:11:52;2.50;80.30
77613;DHT22;66777;52.282;5.960;2023-02-28T03:19:44;2.40;80.20
77613;DHT22;66777;52.282;5.960;2023-02-28T03:24:58;2.50;79.70
77613;DHT22;66777;52.282;5.960;2023-02-28T03:30:27;2.70;79.10
77613;DHT22;66777;52.282;5.960;2023-02-28T03:32:58;2.70;79.00
77613;DHT22;66777;52.282;5.960;2023-02-28T03:35:29;2.70;78.60
77613;DHT22;66777;52.282;5.960;2023-02-28T03:38:18;2.80;78.50
77613;DHT22;66777;52.282;5.960;2023-02-28T03:40:58;2.80;79.00
77613;DHT22;66777;52.282;5.960;2023-02-28T03:43:31;2.80;78.20
77613;DHT22;66777;52.282;5.960;2023-02-28T03:46:00;2.80;77.90
77613;DHT22;66777;52.282;5.960;2023-02-28T03:48:50;2.80;77.80
77613;DHT22;66777;52.282;5.960;2023-02-28T03:51:19;2.80;78.10
77613;DHT22;66777;52.282;5.960;2023-02-28T03:53:59;2.80;78.20
77613;DHT22;66777;52.282;5.960;2023-02-28T03:56:33;2.80;78.80
77613;DHT22;66777;52.282;5.960;2023-02-28T03:59:14;2.80;77.80
77613;DHT22;66777;52.282;5.960;2023-02-28T04:01:45;2.80;77.50
77613;DHT22;66777;52.282;5.960;2023-02-28T04:04:12;2.80;77.10
77613;DHT22;66777;52.282;5.960;2023-02-28T04:06:39;2.80;77.60
77613;DHT22;66777;52.282;5.960;2023-02-28T04:09:07;2.80;77.90
77613;DHT22;66777;52.282;5.960;2023-02-28T04:11:44;2.80;77.70
77613;DHT22;66777;52.282;5.960;2023-02-28T04:14:11;2.80;76.50
77613;DHT22;66777;52.282;5.960;2023-02-28T04:16:40;2.70;76.10
77613;DHT22;66777;52.282;5.960;2023-02-28T04:19:07;2.70;75.40
77613;DHT22;66777;52.282;5.960;2023-02-28T04:21:45;2.70;77.40
77613;DHT22;66777;52.282;5.960;2023-02-28T04:24:16;2.70;78.00
77613;DHT22;66777;52.282;5.960;2023-02-28T04:26:44;2.70;78.30
77613;DHT22;66777;52.282;5.960;2023-02-28T04:29:12;2.60;77.80
77613;DHT22;66777;52.282;5.960;2023-02-28T04:31:38;2.50;77.80
77613;DHT22;66777;52.282;5.960;2023-02-28T04:34:05;2.50;79.10
77613;DHT22;66777;52.282;5.960;2023-02-28T04:36:32;2.50;79.10
77613;DHT22;66777;52.282;5.960;2023-02-28T04:38:57;2.50;78.30
77613;DHT22;66777;52.282;5.960;2023-02-28T04:41:23;2.40;78.30
77613;DHT22;66777;52.282;5.960;2023-02-28T04:43:51;2.40;78.70
77613;DHT22;66777;52.282;5.960;2023-02-28T04:46:17;2.40;79.30
77613;DHT22;66777;52.282;5.960;2023-02-28T04:48:44;2.30;79.70
77613;DHT22;66777;52.282;5.960;2023-02-28T04:51:11;2.30;78.00
77613;DHT22;66777;52.282;5.960;2023-02-28T04:53:39;2.30;77.80
77613;DHT22;66777;52.282;5.960;2023-02-28T04:56:06;2.30;78.10
77613;DHT22;66777;52.282;5.960;2023-02-28T04:58:33;2.30;78.00
77613;DHT22;66777;52.282;5.960;2023-02-28T05:01:30;2.30;79.20
77613;DHT22;66777;52.282;5.960;2023-02-28T05:03:57;2.40;78.70
77613;DHT22;66777;52.282;5.960;2023-02-28T05:06:24;2.30;77.50
77613;DHT22;66777;52.282;5.960;2023-02-28T05:08:51;2.30;77.10
77613;DHT22;66777;52.282;5.960;2023-02-28T05:13:43;2.30;77.00
77613;DHT22;66777;52.282;5.960;2023-02-28T05:16:09;2.30;76.70
77613;DHT22;66777;52.282;5.960;2023-02-28T05:18:36;2.30;76.90
77613;DHT22;66777;52.282;5.960;2023-02-28T05:21:01;2.30;76.40
77613;DHT22;66777;52.282;5.960;2023-02-28T05:23:27;2.30;77.20
77613;DHT22;66777;52.282;5.960;2023-02-28T05:25:55;2.30;76.70
77613;DHT22;66777;52.282;5.960;2023-02-28T05:28:20;2.30;76.40
77613;DHT22;66777;52.282;5.960;2023-02-28T05:30:46;2.30;76.60
77613;DHT22;66777;52.282;5.960;2023-02-28T05:33:13;2.30;75.80
77613;DHT22;66777;52.282;5.960;2023-02-28T05:35:40;2.30;75.70
77613;DHT22;66777;52.282;5.960;2023-02-28T05:38:06;2.30;76.20
77613;DHT22;66777;52.282;5.960;2023-02-28T05:40:32;2.30;76.10
77613;DHT22;66777;52.282;5.960;2023-02-28T05:42:57;2.30;76.20
77613;DHT22;66777;52.282;5.960;2023-02-28T05:45:23;2.30;76.30
77613;DHT22;66777;52.282;5.960;2023-02-28T05:47:48;2.30;76.30
77613;DHT22;66777;52.282;5.960;2023-02-28T05:50:14;2.30;75.80
77613;DHT22;66777;52.282;5.960;2023-02-28T05:52:40;2.30;75.10
77613;DHT22;66777;52.282;5.960;2023-02-28T05:55:06;2.30;75.00
77613;DHT22;66777;52.282;5.960;2023-02-28T05:57:32;2.30;75.20
77613;DHT22;66777;52.282;5.960;2023-02-28T05:59:57;2.30;75.30
77613;DHT22;66777;52.282;5.960;2023-02-28T06:02:23;2.30;75.00
77613;DHT22;66777;52.282;5.960;2023-02-28T06:04:49;2.30;75.10
77613;DHT22;66777;52.282;5.960;2023-02-28T06:07:14;2.30;75.70
77613;DHT22;66777;52.282;5.960;2023-02-28T06:09:40;2.30;75.30
77613;DHT22;66777;52.282;5.960;2023-02-28T06:12:07;2.30;75.00
77613;DHT22;66777;52.282;5.960;2023-02-28T06:14:34;2.30;74.50
77613;DHT22;66777;52.282;5.960;2023-02-28T06:17:00;2.30;74.60
77613;DHT22;66777;52.282;5.960;2023-02-28T06:19:26;2.30;74.80
77613;DHT22;66777;52.282;5.960;2023-02-28T06:21:53;2.30;74.70
77613;DHT22;66777;52.282;5.960;2023-02-28T06:24:24;2.30;74.40
77613;DHT22;66777;52.282;5.960;2023-02-28T06:26:50;2.30;74.70
77613;DHT22;66777;52.282;5.960;2023-02-28T06:29:16;2.30;75.20
77613;DHT22;66777;52.282;5.960;2023-02-28T06:31:44;2.30;74.90
77613;DHT22;66777;52.282;5.960;2023-02-28T06:34:12;2.30;75.20
77613;DHT22;66777;52.282;5.960;2023-02-28T06:36:44;2.30;75.00
77613;DHT22;66777;52.282;5.960;2023-02-28T06:39:11;2.30;73.40
77613;DHT22;66777;52.282;5.960;2023-02-28T06:41:37;2.30;74.00
77613;DHT22;66777;52.282;5.960;2023-02-28T06:44:11;2.30;73.60
77613;DHT22;66777;52.282;5.960;2023-02-28T06:46:41;2.30;73.60
77613;DHT22;66777;52.282;5.960;2023-02-28T06:49:07;2.30;74.30
77613;DHT22;66777;52.282;5.960;2023-02-28T06:51:38;2.40;74.20
77613;DHT22;66777;52.282;5.960;2023-02-28T06:54:05;2.50;74.20
77613;DHT22;66777;52.282;5.960;2023-02-28T06:56:31;2.40;74.30
77613;DHT22;66777;52.282;5.960;2023-02-28T06:58:56;2.50;74.60
77613;DHT22;66777;52.282;5.960;2023-02-28T07:01:22;2.50;74.70
77613;DHT22;66777;52.282;5.960;2023-02-28T07:03:49;2.50;73.50
77613;DHT22;66777;52.282;5.960;2023-02-28T07:06:19;2.50;74.40
77613;DHT22;66777;52.282;5.960;2023-02-28T07:08:46;2.50;74.40
77613;DHT22;66777;52.282;5.960;2023-02-28T07:11:12;2.60;74.30
77613;DHT22;66777;52.282;5.960;2023-02-28T07:13:39;2.70;74.40
77613;DHT22;66777;52.282;5.960;2023-02-28T07:16:09;2.70;74.50
77613;DHT22;66777;52.282;5.960;2023-02-28T07:18:35;2.70;73.70
77613;DHT22;66777;52.282;5.960;2023-02-28T07:21:06;2.80;74.20
77613;DHT22;66777;52.282;5.960;2023-02-28T07:23:32;2.90;73.70
77613;DHT22;66777;52.282;5.960;2023-02-28T07:25:58;2.90;73.60
77613;DHT22;66777;52.282;5.960;2023-02-28T07:28:24;3.00;73.50
77613;DHT22;66777;52.282;5.960;2023-02-28T07:30:50;3.10;73.20
77613;DHT22;66777;52.282;5.960;2023-02-28T07:33:16;3.10;72.60
77613;DHT22;66777;52.282;5.960;2023-02-28T07:35:42;3.20;73.60
77613;DHT22;66777;52.282;5.960;2023-02-28T07:38:08;3.30;73.50
77613;DHT22;66777;52.282;5.960;2023-02-28T07:40:34;3.50;73.00
77613;DHT22;66777;52.282;5.960;2023-02-28T07:43:01;3.50;72.70
77613;DHT22;66777;52.282;5.960;2023-02-28T07:45:27;3.60;73.30
77613;DHT22;66777;52.282;5.960;2023-02-28T07:47:54;3.60;71.50
77613;DHT22;66777;52.282;5.960;2023-02-28T07:50:21;3.70;71.60
77613;DHT22;66777;52.282;5.960;2023-02-28T07:52:47;3.70;72.00
77613;DHT22;66777;52.282;5.960;2023-02-28T07:55:13;3.70;71.40
77613;DHT22;66777;52.282;5.960;2023-02-28T07:57:40;3.60;70.80
77613;DHT22;66777;52.282;5.960;2023-02-28T08:00:09;3.60;70.90
77613;DHT22;66777;52.282;5.960;2023-02-28T08:02:35;3.70;71.30
77613;DHT22;66777;52.282;5.960;2023-02-28T08:05:01;3.90;70.80
77613;DHT22;66777;52.282;5.960;2023-02-28T08:07:27;4.10;71.10
77613;DHT22;66777;52.282;5.960;2023-02-28T08:09:53;4.20;70.40
77613;DHT22;66777;52.282;5.960;2023-02-28T08:12:18;4.40;70.10
77613;DHT22;66777;52.282;5.960;2023-02-28T08:14:45;4.70;70.10
77613;DHT22;66777;52.282;5.960;2023-02-28T08:17:11;4.80;69.70
77613;DHT22;66777;52.282;5.960;2023-02-28T08:19:38;4.90;68.90
77613;DHT22;66777;52.282;5.960;2023-02-28T08:22:04;4.90;68.30
77613;DHT22;66777;52.282;5.960;2023-02-28T08:24:29;4.90;68.20
77613;DHT22;66777;52.282;5.960;2023-02-28T08:26:55;4.80;68.70
77613;DHT22;66777;52.282;5.960;2023-02-28T08:29:21;4.90;67.70
77613;DHT22;66777;52.282;5.960;2023-02-28T08:31:47;4.90;67.70
77613;DHT22;66777;52.282;5.960;2023-02-28T08:34:15;5.00;66.40
77613;DHT22;66777;52.282;5.960;2023-02-28T08:36:41;5.30;66.50
77613;DHT22;66777;52.282;5.960;2023-02-28T08:39:08;5.50;66.00
77613;DHT22;66777;52.282;5.960;2023-02-28T08:41:34;5.60;65.50
77613;DHT22;66777;52.282;5.960;2023-02-28T08:44:00;5.70;64.50
77613;DHT22;66777;52.282;5.960;2023-02-28T08:46:25;5.80;64.00
77613;DHT22;66777;52.282;5.960;2023-02-28T08:48:53;5.70;63.90
77613;DHT22;66777;52.282;5.960;2023-02-28T08:51:20;5.50;63.20
77613;DHT22;66777;52.282;5.960;2023-02-28T08:53:52;5.50;63.50
77613;DHT22;66777;52.282;5.960;2023-02-28T08:56:19;5.30;61.90
77613;DHT22;66777;52.282;5.960;2023-02-28T08:58:46;5.10;61.60
77613;DHT22;66777;52.282;5.960;2023-02-28T09:01:29;5.10;58.90
77613;DHT22;66777;52.282;5.960;2023-02-28T09:03:56;5.00;56.90
77613;DHT22;66777;52.282;5.960;2023-02-28T09:06:25;5.00;56.40
77613;DHT22;66777;52.282;5.960;2023-02-28T09:08:52;5.00;55.10
77613;DHT22;66777;52.282;5.960;2023-02-28T09:11:18;4.90;54.60
77613;DHT22;66777;52.282;5.960;2023-02-28T09:13:46;4.90;54.00
77613;DHT22;66777;52.282;5.960;2023-02-28T09:16:14;4.90;53.40
77613;DHT22;66777;52.282;5.960;2023-02-28T09:18:41;5.00;52.50
77613;DHT22;66777;52.282;5.960;2023-02-28T09:21:08;5.00;50.90
77613;DHT22;66777;52.282;5.960;2023-02-28T09:23:35;5.30;51.90
77613;DHT22;66777;52.282;5.960;2023-02-28T09:26:03;5.60;51.20
77613;DHT22;66777;52.282;5.960;2023-02-28T09:28:29;6.20;51.70
77613;DHT22;66777;52.282;5.960;2023-02-28T09:30:56;6.70;50.90
77613;DHT22;66777;52.282;5.960;2023-02-28T09:33:24;6.80;49.70
77613;DHT22;66777;52.282;5.960;2023-02-28T09:35:50;7.00;50.10
77613;DHT22;66777;52.282;5.960;2023-02-28T09:38:17;7.20;49.30
77613;DHT22;66777;52.282;5.960;2023-02-28T09:40:52;7.40;49.60
77613;DHT22;66777;52.282;5.960;2023-02-28T09:43:20;7.50;47.60
77613;DHT22;66777;52.282;5.960;2023-02-28T09:46:00;7.00;48.90
77613;DHT22;66777;52.282;5.960;2023-02-28T09:48:37;6.60;48.60
77613;DHT22;66777;52.282;5.960;2023-02-28T09:53:50;6.00;48.60
77613;DHT22;66777;52.282;5.960;2023-02-28T09:56:22;6.00;48.40
77613;DHT22;66777;52.282;5.960;2023-02-28T09:59:15;6.10;48.30
77613;DHT22;66777;52.282;5.960;2023-02-28T10:01:49;6.20;47.30
77613;DHT22;66777;52.282;5.960;2023-02-28T10:04:41;6.20;47.50
77613;DHT22;66777;52.282;5.960;2023-02-28T10:10:06;6.60;49.00
77613;DHT22;66777;52.282;5.960;2023-02-28T10:12:41;7.20;46.60
77613;DHT22;66777;52.282;5.960;2023-02-28T10:15:13;6.90;46.90
77613;DHT22;66777;52.282;5.960;2023-02-28T10:17:42;6.60;47.00
77613;DHT22;66777;52.282;5.960;2023-02-28T10:20:12;6.40;47.70
77613;DHT22;66777;52.282;5.960;2023-02-28T10:22:53;6.40;47.60
77613;DHT22;66777;52.282;5.960;2023-02-28T10:25:26;6.40;47.10
77613;DHT22;66777;52.282;5.960;2023-02-28T10:28:04;6.40;47.70
77613;DHT22;66777;52.282;5.960;2023-02-28T10:30:31;6.30;46.40
77613;DHT22;66777;52.282;5.960;2023-02-28T10:33:02;6.30;47.00
77613;DHT22;66777;52.282;5.960;2023-02-28T10:35:28;6.40;46.50
77613;DHT22;66777;52.282;5.960;2023-02-28T10:37:56;6.40;45.50
77613;DHT22;66777;52.282;5.960;2023-02-28T10:45:56;6.90;45.70
77613;DHT22;66777;52.282;5.960;2023-02-28T10:53:30;6.90;46.70
77613;DHT22;66777;52.282;5.960;2023-02-28T10:58:26;7.80;45.70
77613;DHT22;66777;52.282;5.960;2023-02-28T11:00:52;8.00;46.40
77613;DHT22;66777;52.282;5.960;2023-02-28T11:03:33;8.10;46.10
77613;DHT22;66777;52.282;5.960;2023-02-28T11:06:06;8.60;45.10
77613;DHT22;66777;52.282;5.960;2023-02-28T11:08:32;9.20;44.40
77613;DHT22;66777;52.282;5.960;2023-02-28T11:11:02;9.50;43.90
77613;DHT22;66777;52.282;5.960;2023-02-28T11:13:34;9.50;43.60
77613;DHT22;66777;52.282;5.960;2023-02-28T11:16:06;9.40;43.30
77613;DHT22;66777;52.282;5.960;2023-02-28T11:18:48;10.10;43.40
77613;DHT22;66777;52.282;5.960;2023-02-28T11:21:28;11.10;42.30
77613;DHT22;66777;52.282;5.960;2023-02-28T11:24:02;12.30;41.50
77613;DHT22;66777;52.282;5.960;2023-02-28T11:31:40;13.20;38.30
77613;DHT22;66777;52.282;5.960;2023-02-28T11:34:24;13.10;37.80
77613;DHT22;66777;52.282;5.960;2023-02-28T11:36:51;14.10;37.50
77613;DHT22;66777;52.282;5.960;2023-02-28T11:39:19;16.60;36.60
77613;DHT22;66777;52.282;5.960;2023-02-28T11:47:47;22.90;31.20
77613;DHT22;66777;52.282;5.960;2023-02-28T11:53:05;26.20;30.50
77613;DHT22;66777;52.282;5.960;2023-02-28T11:55:39;27.10;30.40
77613;DHT22;66777;52.282;5.960;2023-02-28T11:58:14;28.10;29.50
77613;DHT22;66777;52.282;5.960;2023-02-28T12:01:43;28.00;29.80
77613;DHT22;66777;52.282;5.960;2023-02-28T12:12:33;26.20;29.30
77613;DHT22;66777;52.282;5.960;2023-02-28T12:18:38;28.60;26.90
77613;DHT22;66777;52.282;5.960;2023-02-28T12:23:58;29.50;27.20
77613;DHT22;66777;52.282;5.960;2023-02-28T12:26:39;30.60;26.50
77613;DHT22;66777;52.282;5.960;2023-02-28T12:29:28;30.00;25.60
77613;DHT22;66777;52.282;5.960;2023-02-28T12:32:18;30.30;26.40
77613;DHT22;66777;52.282;5.960;2023-02-28T12:34:53;31.60;25.70
77613;DHT22;66777;52.282;5.960;2023-02-28T12:37:38;31.70;26.60
77613;DHT22;66777;52.282;5.960;2023-02-28T12:40:14;32.20;24.60
77613;DHT22;66777;52.282;5.960;2023-02-28T12:42:48;31.30;25.50
77613;DHT22;66777;52.282;5.960;2023-02-28T12:45:39;31.80;25.40
77613;DHT22;66777;52.282;5.960;2023-02-28T12:48:09;32.80;26.80
77613;DHT22;66777;52.282;5.960;2023-02-28T12:50:37;32.70;26.20
77613;DHT22;66777;52.282;5.960;2023-02-28T12:53:08;31.30;27.00
77613;DHT22;66777;52.282;5.960;2023-02-28T12:55:56;32.10;27.20
77613;DHT22;66777;52.282;5.960;2023-02-28T12:58:39;33.20;26.90
77613;DHT22;66777;52.282;5.960;2023-02-28T13:04:11;29.40;25.50
77613;DHT22;66777;52.282;5.960;2023-02-28T13:09:17;29.10;27.40
77613;DHT22;66777;52.282;5.960;2023-02-28T13:11:50;28.10;27.20
77613;DHT22;66777;52.282;5.960;2023-02-28T13:22:05;32.20;26.90
77613;DHT22;66777;52.282;5.960;2023-02-28T13:29:36;29.00;27.00
77613;DHT22;66777;52.282;5.960;2023-02-28T13:34:47;30.40;26.90
77613;DHT22;66777;52.282;5.960;2023-02-28T13:39:57;31.70;25.90
77613;DHT22;66777;52.282;5.960;2023-02-28T13:47:44;29.90;25.10
77613;DHT22;66777;52.282;5.960;2023-02-28T14:06:30;19.30;32.60
77613;DHT22;66777;52.282;5.960;2023-02-28T14:11:33;15.80;35.40
77613;DHT22;66777;52.282;5.960;2023-02-28T14:14:00;15.20;38.20
77613;DHT22;66777;52.282;5.960;2023-02-28T14:16:35;14.60;35.80
77613;DHT22;66777;52.282;5.960;2023-02-28T14:19:03;14.10;35.80
77613;DHT22;66777;52.282;5.960;2023-02-28T14:21:36;13.40;35.30
77613;DHT22;66777;52.282;5.960;2023-02-28T14:37:48;11.80;38.00
77613;DHT22;66777;52.282;5.960;2023-02-28T14:40:16;11.70;38.30
77613;DHT22;66777;52.282;5.960;2023-02-28T14:42:48;11.60;39.00
77613;DHT22;66777;52.282;5.960;2023-02-28T14:45:21;11.10;38.30
77613;DHT22;66777;52.282;5.960;2023-02-28T14:47:48;10.50;38.90
77613;DHT22;66777;52.282;5.960;2023-02-28T14:50:20;10.30;39.40
77613;DHT22;66777;52.282;5.960;2023-02-28T14:52:46;10.30;39.60
77613;DHT22;66777;52.282;5.960;2023-02-28T14:55:15;10.30;39.30
77613;DHT22;66777;52.282;5.960;2023-02-28T14:57:52;10.40;39.40
77613;DHT22;66777;52.282;5.960;2023-02-28T15:00:33;10.30;39.60
77613;DHT22;66777;52.282;5.960;2023-02-28T15:03:01;10.40;39.60
77613;DHT22;66777;52.282;5.960;2023-02-28T15:05:37;10.30;39.50
77613;DHT22;66777;52.282;5.960;2023-02-28T15:10:31;9.60;39.90
77613;DHT22;66777;52.282;5.960;2023-02-28T15:13:02;9.30;40.00
77613;DHT22;66777;52.282;5.960;2023-02-28T15:15:45;9.20;41.20
77613;DHT22;66777;52.282;5.960;2023-02-28T15:20:51;10.00;42.10
77613;DHT22;66777;52.282;5.960;2023-02-28T15:23:19;10.20;40.90
77613;DHT22;66777;52.282;5.960;2023-02-28T15:25:46;10.10;41.50
77613;DHT22;66777;52.282;5.960;2023-02-28T15:28:16;10.10;40.40
77613;DHT22;66777;52.282;5.960;2023-02-28T15:30:58;9.70;40.80
77613;DHT22;66777;52.282;5.960;2023-02-28T15:33:27;9.20;41.20
77613;DHT22;66777;52.282;5.960;2023-02-28T15:38:35;8.50;42.60
77613;DHT22;66777;52.282;5.960;2023-02-28T15:41:01;8.30;42.60
77613;DHT22;66777;52.282;5.960;2023-02-28T15:43:37;8.10;43.00
77613;DHT22;66777;52.282;5.960;2023-02-28T15:46:13;8.00;43.60
77613;DHT22;66777;52.282;5.960;2023-02-28T15:48:55;7.80;43.30
77613;DHT22;66777;52.282;5.960;2023-02-28T15:51:31;7.60;43.90
77613;DHT22;66777;52.282;5.960;2023-02-28T15:54:06;7.50;44.20
77613;DHT22;66777;52.282;5.960;2023-02-28T15:56:47;7.50;44.10
77613;DHT22;66777;52.282;5.960;2023-02-28T15:59:22;7.30;44.30
77613;DHT22;66777;52.282;5.960;2023-02-28T16:05:00;7.20;44.70
77613;DHT22;66777;52.282;5.960;2023-02-28T16:07:26;7.00;45.10
77613;DHT22;66777;52.282;5.960;2023-02-28T16:09:52;7.00;45.30
77613;DHT22;66777;52.282;5.960;2023-02-28T16:12:19;6.90;45.50
77613;DHT22;66777;52.282;5.960;2023-02-28T16:14:47;6.80;45.70
77613;DHT22;66777;52.282;5.960;2023-02-28T16:17:21;6.70;46.40
77613;DHT22;66777;52.282;5.960;2023-02-28T16:19:49;6.60;46.40
77613;DHT22;66777;52.282;5.960;2023-02-28T16:22:14;6.50;46.70
77613;DHT22;66777;52.282;5.960;2023-02-28T16:24:40;6.50;47.00
77613;DHT22;66777;52.282;5.960;2023-02-28T16:27:07;6.30;46.80
77613;DHT22;66777;52.282;5.960;2023-02-28T16:29:36;6.30;47.30
77613;DHT22;66777;52.282;5.960;2023-02-28T16:32:05;6.20;47.30
77613;DHT22;66777;52.282;5.960;2023-02-28T16:34:31;6.10;47.90
77613;DHT22;66777;52.282;5.960;2023-02-28T16:36:57;6.00;47.70
77613;DHT22;66777;52.282;5.960;2023-02-28T16:39:23;5.90;47.90
77613;DHT22;66777;52.282;5.960;2023-02-28T16:41:50;5.90;48.30
77613;DHT22;66777;52.282;5.960;2023-02-28T16:44:31;5.80;49.30
77613;DHT22;66777;52.282;5.960;2023-02-28T16:46:59;5.70;49.30
77613;DHT22;66777;52.282;5.960;2023-02-28T16:49:25;5.60;49.60
77613;DHT22;66777;52.282;5.960;2023-02-28T16:51:51;5.50;49.10
77613;DHT22;66777;52.282;5.960;2023-02-28T16:54:16;5.50;49.50
77613;DHT22;66777;52.282;5.960;2023-02-28T16:56:45;5.50;49.80
77613;DHT22;66777;52.282;5.960;2023-02-28T16:59:12;5.30;49.40
77613;DHT22;66777;52.282;5.960;2023-02-28T17:01:38;5.30;49.40
77613;DHT22;66777;52.282;5.960;2023-02-28T17:04:03;5.30;49.70
77613;DHT22;66777;52.282;5.960;2023-02-28T17:06:30;5.10;49.80
77613;DHT22;66777;52.282;5.960;2023-02-28T17:08:57;5.10;50.40
77613;DHT22;66777;52.282;5.960;2023-02-28T17:11:23;5.00;50.70
77613;DHT22;66777;52.282;5.960;2023-02-28T17:13:49;4.90;50.60
77613;DHT22;66777;52.282;5.960;2023-02-28T17:16:29;4.90;50.90
77613;DHT22;66777;52.282;5.960;2023-02-28T17:19:04;4.70;50.40
77613;DHT22;66777;52.282;5.960;2023-02-28T17:21:32;4.70;50.60
77613;DHT22;66777;52.282;5.960;2023-02-28T17:23:58;4.60;51.20
77613;DHT22;66777;52.282;5.960;2023-02-28T17:26:24;4.50;51.80
77613;DHT22;66777;52.282;5.960;2023-02-28T17:28:51;4.40;52.00
77613;DHT22;66777;52.282;5.960;2023-02-28T17:31:17;4.30;53.00
77613;DHT22;66777;52.282;5.960;2023-02-28T17:33:46;4.20;53.50
77613;DHT22;66777;52.282;5.960;2023-02-28T17:36:22;4.00;54.10
77613;DHT22;66777;52.282;5.960;2023-02-28T17:38:49;3.90;53.30
77613;DHT22;66777;52.282;5.960;2023-02-28T17:41:15;3.90;55.00
77613;DHT22;66777;52.282;5.960;2023-02-28T17:43:40;3.70;55.00
77613;DHT22;66777;52.282;5.960;2023-02-28T17:46:17;3.70;55.40
77613;DHT22;66777;52.282;5.960;2023-02-28T17:48:44;3.60;55.60
77613;DHT22;66777;52.282;5.960;2023-02-28T17:51:12;3.50;56.20
77613;DHT22;66777;52.282;5.960;2023-02-28T17:53:38;3.50;56.60
77613;DHT22;66777;52.282;5.960;2023-02-28T17:56:04;3.40;56.30
77613;DHT22;66777;52.282;5.960;2023-02-28T17:58:29;3.30;56.50
77613;DHT22;66777;52.282;5.960;2023-02-28T18:00:56;3.30;57.50
77613;DHT22;66777;52.282;5.960;2023-02-28T18:03:22;3.10;57.70
77613;DHT22;66777;52.282;5.960;2023-02-28T18:05:50;3.10;57.70
77613;DHT22;66777;52.282;5.960;2023-02-28T18:08:16;3.00;58.50
77613;DHT22;66777;52.282;5.960;2023-02-28T18:10:42;2.90;58.70
77613;DHT22;66777;52.282;5.960;2023-02-28T18:13:08;2.80;58.40
77613;DHT22;66777;52.282;5.960;2023-02-28T18:15:34;2.70;59.10
77613;DHT22;66777;52.282;5.960;2023-02-28T18:17:59;2.70;59.70
77613;DHT22;66777;52.282;5.960;2023-02-28T18:20:25;2.60;59.70
77613;DHT22;66777;52.282;5.960;2023-02-28T18:22:53;2.50;60.20
77613;DHT22;66777;52.282;5.960;2023-02-28T18:25:19;2.50;59.80
77613;DHT22;66777;52.282;5.960;2023-02-28T18:27:45;2.40;60.50
77613;DHT22;66777;52.282;5.960;2023-02-28T18:30:29;2.40;61.10